Time;durP1;ratioP1;P1;durP2;ratioP2;P2;SDS_P1;SDS_P2;PMS_P1;PMS_P2;Temp;Humidity;BMP_temperature;BMP_pressure;BME280_temperature;BME280_humidity;BME280_pressure;Samples;Min_cycle;Max_cycle;Signal;HPM_P1;HPM_P2
2023/06/04 00:01:11;;;;;;;6.00;3.75;;;18.30;99.90;;;18.66;55.81;102099.06;5083684;28;20093;-66
2023/06/04 00:03:44;;;;;;;5.70;4.35;;;18.30;99.90;;;18.65;56.05;102107.13;5083971;28;20501;-66
2023/06/04 00:06:13;;;;;;;4.38;3.90;;;18.30;99.90;;;18.67;55.89;102106.22;5082317;28;20127;-66
2023/06/04 00:08:41;;;;;;;4.88;3.92;;;18.30;99.90;;;18.50;56.14;102102.06;5083649;28;20056;-66
2023/06/04 00:11:11;;;;;;;4.43;4.03;;;18.10;99.90;;;18.38;56.35;102099.53;5081560;28;20078;-66
2023/06/04 00:13:39;;;;;;;8.32;4.20;;;18.00;99.90;;;18.46;56.46;102105.69;5077580;28;20184;-66
2023/06/04 00:16:08;;;;;;;4.43;4.03;;;18.00;99.90;;;18.44;56.31;102102.16;5084277;28;20040;-66
2023/06/04 00:18:36;;;;;;;6.13;4.22;;;18.00;99.90;;;18.44;56.41;102097.69;5081958;28;20057;-66
2023/06/04 00:21:05;;;;;;;6.90;4.18;;;18.00;99.90;;;18.02;55.99;102021.56;5099175;28;20082;-66
2023/06/04 00:23:33;;;;;;;4.50;4.07;;;18.10;99.90;;;18.40;56.08;102100.41;5082807;28;20036;-66
2023/06/04 00:26:02;;;;;;;4.68;4.15;;;18.00;99.90;;;18.40;56.03;102095.94;5082570;28;20089;-66
2023/06/04 00:28:31;;;;;;;6.85;4.20;;;18.00;99.90;;;18.36;56.11;102090.63;5083599;28;20110;-66
2023/06/04 00:31:00;;;;;;;8.85;4.20;;;18.00;99.90;;;18.39;56.04;102101.31;5081506;28;20044;-67
2023/06/04 00:33:28;;;;;;;5.28;4.22;;;18.00;99.90;;;18.33;55.84;102099.59;5084569;28;20044;-66
2023/06/04 00:35:56;;;;;;;6.05;4.00;;;18.00;99.90;;;18.28;55.79;102085.41;5080646;28;20131;-66
2023/06/04 00:38:25;;;;;;;5.22;4.47;;;18.00;99.90;;;18.37;55.47;102112.03;5092847;28;20063;-66
2023/06/04 00:40:53;;;;;;;4.75;3.22;;;18.00;99.90;;;18.33;55.82;102107.63;5083989;28;20560;-67
2023/06/04 00:43:25;;;;;;;6.40;4.07;;;17.90;99.90;;;18.31;55.56;102106.78;5097318;28;20494;-66
2023/06/04 00:45:55;;;;;;;4.70;4.18;;;17.90;99.90;;;18.23;55.50;102107.84;5082897;28;20055;-66
2023/06/04 00:48:25;;;;;;;6.40;3.53;;;17.80;99.90;;;18.24;55.85;102104.22;5083179;28;20052;-66
2023/06/04 00:50:53;;;;;;;6.68;3.97;;;17.80;99.90;;;18.20;55.52;102111.44;5081507;28;20048;-66
2023/06/04 00:53:24;;;;;;;5.57;3.88;;;17.80;99.90;;;18.12;55.41;102094.59;5084044;28;20497;-66
2023/06/04 00:55:52;;;;;;;8.00;4.00;;;17.80;99.90;;;18.11;55.77;102116.94;5076637;28;20102;-66
2023/06/04 00:58:21;;;;;;;10.10;4.07;;;17.60;99.90;;;18.11;55.39;102108.03;5084005;28;20558;-66
2023/06/04 01:00:50;;;;;;;4.22;3.92;;;17.70;99.90;;;18.05;55.49;102109.00;5081244;28;20494;-66
2023/06/04 01:03:24;;;;;;;4.60;3.83;;;17.70;99.90;;;18.08;55.35;102108.94;5083098;28;20055;-66
2023/06/04 01:06:05;;;;;;;5.03;3.70;;;17.60;99.90;;;18.07;55.28;102107.19;5082950;28;20055;-65
2023/06/04 01:08:34;;;;;;;5.90;3.83;;;17.70;99.90;;;17.93;55.28;102111.84;5077723;28;20047;-66
2023/06/04 01:11:02;;;;;;;5.53;4.13;;;17.60;99.90;;;17.95;55.43;102112.72;5082071;28;20130;-66
2023/06/04 01:13:31;;;;;;;17.02;4.53;;;17.50;99.90;;;17.90;55.52;102106.56;5081863;28;20113;-66
2023/06/04 01:16:00;;;;;;;4.78;3.70;;;17.50;99.90;;;17.84;55.56;102112.00;5082395;28;20079;-66
2023/06/04 01:18:32;;;;;;;5.55;4.15;;;17.40;99.90;;;17.86;55.49;102119.13;5065400;28;20044;-66
2023/06/04 01:21:08;;;;;;;4.13;3.83;;;17.50;99.90;;;17.85;55.30;102111.06;5080971;28;20048;-66
2023/06/04 01:23:47;;;;;;;4.40;4.00;;;17.50;99.90;;;17.84;55.18;102106.66;5076145;28;20489;-66
2023/06/04 01:26:16;;;;;;;5.13;4.53;;;17.50;99.90;;;17.82;55.41;102101.31;5099727;28;20057;-66
2023/06/04 01:28:46;;;;;;;6.78;3.97;;;17.40;99.90;;;17.79;55.54;102105.81;5103106;28;20044;-66
2023/06/04 01:31:15;;;;;;;4.70;4.30;;;17.40;99.90;;;17.78;55.54;102110.31;5084964;28;20409;-66
2023/06/04 01:33:45;;;;;;;3.88;3.55;;;17.40;99.90;;;17.83;55.20;102110.22;5087937;28;20071;-66
2023/06/04 01:36:13;;;;;;;4.75;4.18;;;17.40;99.90;;;17.69;55.39;102102.38;5087717;28;20047;-67
2023/06/04 01:38:42;;;;;;;4.47;3.63;;;17.30;99.90;;;17.59;55.21;102105.22;5084728;28;20430;-67
2023/06/04 01:41:10;;;;;;;5.07;3.75;;;17.30;99.90;;;17.60;55.20;102101.63;5087027;28;20048;-67
2023/06/04 01:43:38;;;;;;;4.97;3.88;;;17.20;99.90;;;17.63;55.51;102106.94;5101311;28;20497;-66
2023/06/04 01:46:07;;;;;;;9.57;4.20;;;17.20;99.90;;;17.53;55.46;102110.66;5086139;28;20052;-66
2023/06/04 01:48:36;;;;;;;4.75;4.13;;;17.20;99.90;;;17.43;55.74;102080.41;5086158;28;20041;-67
2023/06/04 01:51:06;;;;;;;5.38;4.10;;;17.10;99.90;;;17.57;55.69;102099.00;5085022;28;20039;-66
2023/06/04 01:53:35;;;;;;;5.55;4.30;;;17.20;99.90;;;17.58;55.17;102095.41;5087494;28;20090;-66
2023/06/04 01:56:03;;;;;;;4.93;4.20;;;17.20;99.90;;;17.57;55.19;102096.31;5084012;28;20394;-66
2023/06/04 01:58:31;;;;;;;5.78;3.97;;;17.20;99.90;;;17.55;55.24;102095.47;5095712;28;20048;-66
2023/06/04 02:01:02;;;;;;;7.60;3.80;;;17.10;99.90;;;17.53;55.21;102095.47;5087246;28;20458;-66
2023/06/04 02:03:36;;;;;;;3.95;3.60;;;17.10;99.90;;;17.49;55.30;102092.88;5100638;28;20052;-66
2023/06/04 02:06:07;;;;;;;6.47;4.30;;;17.10;99.90;;;17.49;55.39;102100.88;5085300;28;20401;-66
2023/06/04 02:08:36;;;;;;;4.75;4.10;;;17.10;99.90;;;17.49;55.29;102093.75;5086803;28;20048;-66
2023/06/04 02:11:05;;;;;;;4.35;4.05;;;17.10;99.90;;;17.47;55.07;102094.63;5084045;28;20072;-66
2023/06/04 02:13:33;;;;;;;5.47;4.00;;;17.10;99.90;;;17.38;54.93;102092.94;5095185;28;20052;-66
2023/06/04 02:16:02;;;;;;;5.05;4.00;;;17.10;99.90;;;17.37;55.14;102092.97;5087055;28;20048;-66
2023/06/04 02:18:30;;;;;;;5.22;4.28;;;17.00;99.90;;;17.31;55.18;102090.38;5083976;28;20063;-66
2023/06/04 02:20:59;;;;;;;4.40;4.00;;;17.00;99.90;;;17.34;55.21;102091.25;5086288;28;20501;-66
2023/06/04 02:23:28;;;;;;;5.30;4.20;;;16.90;99.90;;;17.36;55.02;102093.91;5085061;28;20443;-66
2023/06/04 02:25:57;;;;;;;4.17;3.83;;;17.00;99.90;;;17.13;55.03;102059.41;5085335;28;20071;-66
2023/06/04 02:28:25;;;;;;;5.03;3.70;;;17.00;99.90;;;17.32;54.85;102094.84;5101212;28;20505;-66
2023/06/04 02:30:54;;;;;;;8.02;3.85;;;16.90;99.90;;;17.33;54.70;102094.81;5084253;28;20379;-66
2023/06/04 02:33:23;;;;;;;4.80;3.97;;;16.90;99.90;;;17.31;54.77;102091.28;5086567;28;20047;-66
2023/06/04 02:35:51;;;;;;;4.90;3.75;;;16.90;99.90;;;17.27;54.70;102096.66;5083338;28;20036;-66
2023/06/04 02:38:20;;;;;;;5.43;3.50;;;16.90;99.90;;;17.24;54.72;102099.38;5078219;28;20095;-66
2023/06/04 02:40:49;;;;;;;5.70;4.10;;;16.80;99.90;;;17.24;54.66;102105.63;5079427;28;20105;-66
2023/06/04 02:43:18;;;;;;;4.10;3.70;;;16.80;99.90;;;17.19;54.50;102106.59;5083713;28;20064;-66
2023/06/04 02:45:46;;;;;;;5.53;4.00;;;16.80;99.90;;;17.18;54.57;102105.69;5085641;28;20093;-66
2023/06/04 02:48:14;;;;;;;6.05;3.75;;;16.80;99.90;;;17.13;54.70;102104.84;5084424;28;20055;-66
2023/06/04 02:50:44;;;;;;;4.72;4.20;;;16.80;99.90;;;17.06;54.56;102090.69;5083457;28;20447;-66
2023/06/04 02:53:12;;;;;;;4.97;3.90;;;16.70;99.90;;;17.14;54.28;102103.97;5084061;28;20048;-66
2023/06/04 02:55:42;;;;;;;7.78;4.00;;;16.70;99.90;;;17.11;54.36;102102.19;5083556;28;20378;-66
2023/06/04 02:58:14;;;;;;;4.60;3.75;;;16.70;99.90;;;17.12;53.95;102095.97;5086522;28;20056;-66
2023/06/04 03:00:42;;;;;;;4.45;3.58;;;16.80;99.90;;;17.19;53.68;102093.22;5079085;28;20048;-66
2023/06/04 03:03:10;;;;;;;5.47;4.20;;;16.80;99.90;;;17.17;53.58;102103.06;5084688;28;20450;-66
2023/06/04 03:05:39;;;;;;;4.28;3.70;;;16.80;99.90;;;17.10;53.57;102096.88;5083542;28;20481;-66
2023/06/04 03:08:07;;;;;;;4.10;3.70;;;16.70;99.90;;;17.05;53.48;102093.38;5084853;28;20110;-66
2023/06/04 03:10:36;;;;;;;7.57;3.97;;;16.70;99.90;;;17.04;53.18;102094.28;5084204;28;20068;-66
2023/06/04 03:13:04;;;;;;;4.78;3.80;;;16.70;99.90;;;17.05;53.23;102093.38;5084310;28;20090;-66
2023/06/04 03:15:38;;;;;;;4.95;3.85;;;16.70;99.90;;;17.01;52.95;102097.00;5084886;28;20044;-67
2023/06/04 03:18:08;;;;;;;5.22;4.10;;;16.60;99.90;;;17.03;53.06;102089.84;5082441;28;20467;-66
2023/06/04 03:20:37;;;;;;;4.10;3.70;;;16.60;99.90;;;16.97;52.80;102097.94;5078669;28;20075;-66
2023/06/04 03:23:06;;;;;;;4.32;3.92;;;16.60;99.90;;;16.96;52.78;102098.81;5085236;28;20413;-66
2023/06/04 03:25:35;;;;;;;4.95;3.58;;;16.60;99.90;;;16.95;52.87;102091.72;5099093;28;20056;-66
2023/06/04 03:28:03;;;;;;;4.97;3.78;;;16.50;99.90;;;16.88;52.58;102092.66;5100211;28;20480;-66
2023/06/04 03:30:34;;;;;;;4.60;3.58;;;16.50;99.90;;;16.86;52.64;102095.34;5099875;28;20497;-66
2023/06/04 03:33:05;;;;;;;4.50;3.92;;;16.40;99.90;;;16.80;52.61;102097.22;5083132;28;20040;-66
2023/06/04 03:35:34;;;;;;;4.40;4.00;;;16.40;99.90;;;16.69;52.60;102078.59;5101070;28;20048;-67
2023/06/04 03:38:02;;;;;;;4.30;3.80;;;16.40;99.90;;;16.80;52.58;102102.56;5082098;28;20056;-66
2023/06/04 03:40:32;;;;;;;4.10;3.70;;;16.40;99.90;;;16.77;52.55;102095.47;5053161;28;20037;-66
2023/06/04 03:43:03;;;;;;;4.53;4.00;;;16.30;99.90;;;16.67;52.30;102083.09;5083719;28;20110;-66
2023/06/04 03:45:34;;;;;;;4.97;4.13;;;16.30;99.90;;;16.74;52.49;102090.13;5099301;28;20067;-66
2023/06/04 03:48:03;;;;;;;3.90;3.60;;;16.30;99.90;;;16.73;52.51;102090.16;5099256;28;20109;-66
2023/06/04 03:50:33;;;;;;;5.07;3.72;;;16.30;99.90;;;16.80;52.01;102092.75;5100133;28;20056;-66
2023/06/04 03:53:04;;;;;;;4.43;3.97;;;16.40;99.90;;;16.73;52.72;102096.38;5081002;28;20106;-66
2023/06/04 03:55:33;;;;;;;5.45;3.60;;;16.40;99.90;;;16.76;52.26;102101.69;5064180;28;20486;-66
2023/06/04 03:58:04;;;;;;;4.75;3.88;;;16.40;99.90;;;16.78;51.93;102096.34;5100366;28;20036;-67
2023/06/04 04:00:34;;;;;;;4.20;3.80;;;16.40;99.90;;;16.75;51.92;102099.94;5081071;28;20045;-66
2023/06/04 04:03:04;;;;;;;7.53;4.18;;;16.40;99.90;;;16.70;51.95;102100.88;5083566;28;20093;-66
2023/06/04 04:05:32;;;;;;;4.20;3.80;;;16.30;99.90;;;16.75;51.65;102104.38;5083789;28;20040;-66
2023/06/04 04:08:01;;;;;;;5.47;3.70;;;16.30;99.90;;;16.76;51.39;102099.00;5082547;28;20139;-66
2023/06/04 04:10:33;;;;;;;3.90;3.60;;;16.30;99.90;;;16.82;51.35;102103.44;5100570;28;20048;-66
2023/06/04 04:13:03;;;;;;;3.95;3.50;;;16.40;99.90;;;16.78;51.61;102096.34;5076340;28;20398;-66
2023/06/04 04:15:36;;;;;;;6.60;3.83;;;16.40;99.90;;;16.84;51.09;102107.84;5082696;28;20056;-66
2023/06/04 04:18:08;;;;;;;5.10;4.13;;;16.40;99.90;;;16.85;50.89;102100.72;5098621;28;20055;-66
2023/06/04 04:20:36;;;;;;;5.10;3.95;;;16.40;99.90;;;16.84;51.16;102099.81;5082644;28;20048;-66
2023/06/04 04:23:08;;;;;;;6.10;4.00;;;16.50;99.90;;;16.81;50.72;102107.88;5083095;28;20048;-66
2023/06/04 04:25:38;;;;;;;5.25;3.75;;;16.40;99.90;;;16.86;50.95;102103.38;5096891;28;20049;-66
2023/06/04 04:28:08;;;;;;;4.18;3.67;;;16.50;99.90;;;16.84;51.00;102099.81;5093541;28;20052;-66
2023/06/04 04:30:39;;;;;;;4.78;4.07;;;16.40;99.90;;;16.83;50.94;102103.41;5099636;28;20052;-66
2023/06/04 04:33:10;;;;;;;4.20;3.80;;;16.40;99.90;;;16.84;50.72;102099.81;5098626;28;20052;-66
2023/06/04 04:35:45;;;;;;;4.53;3.92;;;16.50;99.90;;;16.78;50.67;102097.22;5097304;28;20119;-66
2023/06/04 04:38:17;;;;;;;4.32;4.03;;;16.40;99.90;;;16.88;50.88;102101.56;5109991;27;20075;-66
2023/06/04 04:40:52;;;;;;;5.47;4.03;;;16.50;99.90;;;16.93;50.67;102094.41;5099278;28;20048;-66
2023/06/04 04:43:31;;;;;;;4.30;3.90;;;16.50;99.90;;;16.92;50.40;102092.63;5098580;28;20044;-66
2023/06/04 04:46:05;;;;;;;3.78;3.40;;;16.60;99.90;;;16.43;50.28;101994.25;5092747;28;20405;-66
2023/06/04 04:48:34;;;;;;;4.38;3.50;;;16.60;99.90;;;17.02;50.24;102090.72;5083953;28;20044;-66
2023/06/04 04:51:02;;;;;;;5.38;3.60;;;16.60;99.90;;;17.01;50.08;102088.97;5097429;28;20043;-66
2023/06/04 04:53:31;;;;;;;5.50;3.63;;;16.60;99.90;;;17.07;50.26;102087.09;5082339;28;20452;-66
2023/06/04 04:56:00;;;;;;;5.15;3.95;;;16.70;99.90;;;17.06;49.89;102089.78;5081165;28;20052;-66
2023/06/04 04:58:29;;;;;;;5.40;3.60;;;16.70;99.90;;;17.13;50.10;102086.13;5082167;28;20070;-66
2023/06/04 05:00:58;;;;;;;6.05;3.80;;;16.70;99.90;;;17.22;49.63;102094.06;5098797;28;20056;-66
2023/06/04 05:03:28;;;;;;;5.63;3.80;;;16.80;99.90;;;17.21;49.13;102100.31;5080098;28;20043;-66
2023/06/04 05:05:57;;;;;;;7.30;3.47;;;16.80;99.90;;;17.15;49.26;102074.53;5083198;28;20503;-66
2023/06/04 05:08:25;;;;;;;8.27;3.97;;;16.90;99.90;;;17.24;49.30;102100.28;5109723;28;20519;-66
2023/06/04 05:10:53;;;;;;;5.18;3.50;;;16.90;99.90;;;17.19;48.98;102094.09;5082491;28;20059;-66
2023/06/04 05:13:22;;;;;;;5.20;3.60;;;16.80;99.90;;;17.22;48.88;102101.19;5080019;28;20082;-66
2023/06/04 05:15:56;;;;;;;3.83;3.53;;;16.80;99.90;;;17.13;49.30;102092.38;5082339;28;20479;-66
2023/06/04 05:18:30;;;;;;;5.57;3.35;;;16.90;99.90;;;17.30;49.31;102108.25;5082058;28;20481;-66
2023/06/04 05:21:02;;;;;;;5.15;3.85;;;16.90;99.90;;;17.39;48.93;102102.75;5075484;28;20084;-66
2023/06/04 05:23:36;;;;;;;4.97;3.60;;;17.00;99.90;;;17.48;49.14;102099.09;5082078;28;20452;-67
2023/06/04 05:26:06;;;;;;;5.78;3.90;;;17.10;99.90;;;17.51;48.52;102104.44;5097831;28;20159;-66
2023/06/04 05:28:35;;;;;;;5.28;3.63;;;17.10;99.90;;;17.51;48.47;102112.47;5097667;28;20082;-66
2023/06/04 05:31:05;;;;;;;4.40;3.70;;;17.10;99.90;;;17.51;48.19;102110.69;5081901;28;20044;-66
2023/06/04 05:33:36;;;;;;;4.03;3.63;;;17.20;99.90;;;17.42;48.08;102116.09;5096696;28;20410;-66
2023/06/04 05:36:09;;;;;;;5.60;3.65;;;17.10;99.90;;;17.45;48.60;102109.81;5093058;28;20045;-66
2023/06/04 05:38:44;;;;;;;6.32;3.42;;;17.10;99.90;;;17.66;48.90;102112.25;5097924;28;20472;-66
2023/06/04 05:41:15;;;;;;;4.47;3.83;;;17.20;99.90;;;17.55;48.38;102119.53;5098580;28;20052;-66
2023/06/04 05:43:44;;;;;;;4.00;3.55;;;17.20;99.90;;;17.54;48.40;102121.31;5096692;28;20072;-66
2023/06/04 05:46:16;;;;;;;5.90;3.70;;;17.20;99.90;;;17.71;48.74;102115.75;5074750;28;20040;-66
2023/06/04 05:48:47;;;;;;;4.70;3.70;;;17.30;99.90;;;17.48;47.96;102097.31;5092767;28;20108;-67
2023/06/04 05:51:15;;;;;;;4.85;3.53;;;17.20;99.90;;;17.67;48.87;102116.72;5081819;28;20048;-66
2023/06/04 05:53:44;;;;;;;3.70;3.35;;;17.30;99.90;;;17.63;48.71;102109.63;5097439;28;20135;-66
2023/06/04 05:56:13;;;;;;;6.80;3.65;;;17.30;99.90;;;17.85;48.42;102120.00;5097684;28;20051;-66
2023/06/04 05:58:42;;;;;;;3.50;3.20;;;17.50;99.90;;;17.72;47.42;102110.38;5098125;28;20044;-66
2023/06/04 06:01:12;;;;;;;4.18;3.78;;;17.40;99.90;;;17.80;47.71;102104.91;5079450;28;20140;-66
2023/06/04 06:03:41;;;;;;;5.68;3.40;;;17.40;99.90;;;17.92;48.00;102112.78;5083850;28;20051;-67
2023/06/04 06:06:13;;;;;;;3.65;3.30;;;17.60;99.90;;;18.07;47.23;102123.25;5078451;28;20053;-66
2023/06/04 06:08:42;;;;;;;4.15;3.42;;;17.70;99.90;;;17.91;47.84;102121.69;5092636;28;20055;-67
2023/06/04 06:11:10;;;;;;;5.65;3.72;;;17.50;99.90;;;18.19;47.16;102116.81;5098428;28;20058;-66
2023/06/04 06:13:39;;;;;;;3.90;3.50;;;17.80;99.90;;;18.31;46.94;102127.34;5099572;28;20056;-66
2023/06/04 06:16:09;;;;;;;6.45;3.30;;;17.90;99.90;;;18.21;47.26;102118.59;5101172;28;20070;-66
2023/06/04 06:18:38;;;;;;;5.68;3.85;;;17.80;99.90;;;18.17;46.37;102122.22;5101889;28;20095;-66
2023/06/04 06:21:06;;;;;;;5.57;3.72;;;17.80;99.90;;;18.24;46.79;102128.34;5084376;28;20063;-66
2023/06/04 06:23:37;;;;;;;5.60;3.35;;;17.90;99.90;;;18.32;46.93;102130.00;5085709;28;20076;-66
2023/06/04 06:26:08;;;;;;;4.47;3.58;;;17.90;99.90;;;18.49;46.45;102132.44;5078401;28;20139;-67
2023/06/04 06:28:42;;;;;;;5.03;3.75;;;18.10;99.90;;;18.50;45.45;102132.44;5084485;28;20044;-67
2023/06/04 06:31:11;;;;;;;3.72;3.35;;;18.10;99.90;;;17.78;45.08;102027.31;5100925;28;20052;-66
2023/06/04 06:33:41;;;;;;;3.70;3.22;;;18.10;99.90;;;18.40;45.98;102133.44;5084583;28;20443;-67
2023/06/04 06:36:11;;;;;;;4.03;3.35;;;18.10;99.90;;;18.67;46.17;102133.03;5086008;28;20097;-66
2023/06/04 06:38:41;;;;;;;5.18;3.30;;;18.20;99.90;;;18.83;45.59;102145.22;5083296;28;20043;-67
2023/06/04 06:41:09;;;;;;;4.85;3.10;;;18.40;99.90;;;18.79;44.91;102138.13;5079406;28;20437;-67
2023/06/04 06:43:38;;;;;;;4.85;3.40;;;18.50;99.90;;;18.92;44.90;102134.34;5086555;28;20115;-67
2023/06/04 06:46:06;;;;;;;4.65;3.20;;;18.50;99.90;;;19.03;44.58;102139.50;5083715;28;20110;-67
2023/06/04 06:48:35;;;;;;;6.00;3.45;;;18.60;99.90;;;19.17;44.51;102149.97;5084340;28;20056;-66
2023/06/04 06:51:04;;;;;;;3.78;3.20;;;18.80;99.90;;;19.26;44.32;102139.06;5084574;28;20043;-66
2023/06/04 06:53:33;;;;;;;3.83;3.10;;;18.90;99.90;;;19.30;43.31;102151.50;5084385;28;20048;-66
2023/06/04 06:56:03;;;;;;;3.80;3.22;;;18.90;99.90;;;19.26;43.23;102160.53;5101095;28;20047;-67
2023/06/04 06:58:31;;;;;;;4.60;3.00;;;18.90;99.90;;;19.24;42.99;102146.25;5083288;28;20123;-66
2023/06/04 07:01:00;;;;;;;3.95;3.20;;;18.90;99.90;;;19.41;43.75;102138.78;5086107;28;20073;-67
2023/06/04 07:03:29;;;;;;;7.38;3.22;;;19.00;99.90;;;19.58;44.03;102144.69;5078600;28;20429;-66
2023/06/04 07:05:57;;;;;;;5.40;3.30;;;19.20;99.90;;;19.02;43.53;102148.47;5086069;28;20461;-66
2023/06/04 07:08:25;;;;;;;7.65;3.58;;;18.80;99.90;;;19.20;43.73;102164.19;5098486;28;20106;-66
2023/06/04 07:10:54;;;;;;;4.53;2.90;;;18.90;99.90;;;19.32;42.92;102145.22;5085307;28;20043;-66
2023/06/04 07:13:24;;;;;;;3.80;3.20;;;19.00;99.90;;;19.46;42.97;102151.19;5084210;28;20052;-66
2023/06/04 07:15:52;;;;;;;4.00;3.50;;;19.10;99.90;;;19.49;42.74;102155.63;5084253;28;20105;-66
2023/06/04 07:18:21;;;;;;;3.30;3.00;;;19.10;99.90;;;19.51;42.84;102151.09;5084476;28;20079;-66
2023/06/04 07:20:52;;;;;;;3.78;3.33;;;19.10;99.90;;;19.47;42.75;102154.78;5083226;28;20436;-66
2023/06/04 07:23:23;;;;;;;4.68;3.50;;;19.20;99.90;;;19.60;43.05;102149.13;5077748;28;20037;-66
2023/06/04 07:25:52;;;;;;;4.82;3.45;;;19.20;99.90;;;19.80;42.86;102152.25;5078702;28;20310;-66
2023/06/04 07:28:20;;;;;;;5.00;3.40;;;19.40;99.90;;;20.05;43.12;102157.09;5083668;28;20040;-66
2023/06/04 07:30:50;;;;;;;3.55;3.20;;;19.60;99.90;;;19.93;42.26;102126.00;5082646;28;20037;-66
2023/06/04 07:33:19;;;;;;;4.03;3.35;;;19.70;99.90;;;20.08;42.27;102151.63;5084254;28;20048;-66
2023/06/04 07:35:47;;;;;;;4.70;3.45;;;19.70;99.90;;;19.35;42.81;102153.22;5083957;28;20447;-67
2023/06/04 07:38:15;;;;;;;3.65;3.35;;;19.30;99.90;;;19.87;43.49;102158.38;5083100;28;20048;-66
2023/06/04 07:40:44;;;;;;;4.25;3.40;;;19.50;99.90;;;20.20;43.18;102154.06;5084657;28;20075;-66
2023/06/04 07:43:12;;;;;;;4.32;3.42;;;19.70;99.90;;;20.44;43.39;102151.66;5081273;28;20509;-66
2023/06/04 07:45:41;;;;;;;5.15;3.15;;;20.00;99.90;;;20.57;42.48;102152.25;5100725;28;20101;-67
2023/06/04 07:48:11;;;;;;;5.45;3.35;;;20.20;99.90;;;20.61;42.02;102154.81;5077738;28;20106;-67
2023/06/04 07:50:40;;;;;;;4.68;3.20;;;20.20;99.90;;;20.13;41.80;102055.69;5111582;27;20559;-66
2023/06/04 07:53:09;;;;;;;10.05;4.10;;;20.40;99.90;;;20.71;41.37;102159.97;5084432;28;20047;-66
2023/06/04 07:55:37;;;;;;;4.25;3.13;;;20.40;99.90;;;20.56;41.70;102150.47;5098660;28;20053;-66
2023/06/04 07:58:05;;;;;;;3.67;3.05;;;20.20;99.90;;;20.70;42.08;102159.09;5083373;28;20545;-67
2023/06/04 08:00:34;;;;;;;4.00;3.15;;;20.30;99.90;;;20.86;43.13;102154.19;5083495;28;20056;-66
2023/06/04 08:03:03;;;;;;;6.35;3.40;;;20.50;99.90;;;21.22;43.17;102155.91;5081449;28;20052;-67
2023/06/04 08:05:33;;;;;;;6.60;3.40;;;20.80;99.90;;;21.33;42.88;102156.53;5084339;28;20122;-66
2023/06/04 08:08:03;;;;;;;6.07;3.35;;;21.00;99.90;;;21.43;43.35;102160.69;5081681;28;20060;-67
2023/06/04 08:10:32;;;;;;;4.85;3.30;;;21.10;99.90;;;21.24;42.84;102160.34;5077676;28;20040;-68
2023/06/04 08:13:00;;;;;;;4.00;3.60;;;21.00;99.90;;;21.40;43.14;102156.31;5084468;28;20139;-67
2023/06/04 08:15:28;;;;;;;5.65;3.40;;;21.10;99.90;;;21.32;42.47;102135.91;5082229;28;20064;-67
2023/06/04 08:17:57;;;;;;;4.40;3.45;;;21.10;99.90;;;21.68;43.68;102150.97;5083598;28;20485;-66
2023/06/04 08:20:25;;;;;;;6.53;3.17;;;21.30;99.90;;;21.91;43.67;102156.59;5082726;28;20106;-67
2023/06/04 08:22:56;;;;;;;5.82;3.13;;;21.50;99.90;;;21.92;41.75;102150.28;5098467;28;20071;-67
2023/06/04 08:25:24;;;;;;;6.03;3.80;;;21.60;99.90;;;21.83;41.86;102139.81;5083680;28;20055;-67
2023/06/04 08:27:53;;;;;;;8.05;3.65;;;21.60;99.90;;;22.00;42.84;102167.09;5081613;28;20067;-67
2023/06/04 08:30:21;;;;;;;4.35;3.13;;;21.60;99.90;;;22.21;43.30;102168.25;5084531;28;20102;-67
2023/06/04 08:32:50;;;;;;;7.53;3.53;;;21.80;99.90;;;22.39;43.05;102165.84;5076916;28;20045;-67
2023/06/04 08:35:18;;;;;;;4.53;3.00;;;22.00;99.90;;;22.54;42.54;102168.97;5083583;28;20040;-68
2023/06/04 08:37:47;;;;;;;6.97;3.53;;;22.20;99.90;;;22.70;43.03;102164.84;5081287;28;20049;-67
2023/06/04 08:40:17;;;;;;;6.53;3.50;;;22.40;99.90;;;22.70;42.33;102170.25;5083660;28;20047;-67
2023/06/04 08:42:46;;;;;;;6.30;3.17;;;22.40;99.90;;;22.90;42.74;102171.31;5065190;28;20048;-68
2023/06/04 08:45:16;;;;;;;8.40;3.30;;;22.50;99.90;;;22.90;41.97;102170.47;5082508;28;20044;-68
2023/06/04 08:47:49;;;;;;;3.70;3.10;;;22.60;99.90;;;23.04;42.58;102178.94;5099186;28;20158;-68
2023/06/04 08:50:19;;;;;;;4.97;2.92;;;22.70;99.90;;;22.85;42.30;102185.91;5080736;28;20123;-68
2023/06/04 08:52:50;;;;;;;5.70;3.65;;;22.50;99.90;;;23.11;41.82;102181.38;5077440;28;20048;-67
2023/06/04 08:55:20;;;;;;;5.70;3.40;;;22.70;99.90;;;23.22;41.33;102183.72;5083256;28;20044;-67
2023/06/04 08:57:51;;;;;;;5.65;3.50;;;22.90;99.90;;;23.28;41.22;102184.38;5082366;28;20071;-68
2023/06/04 09:00:21;;;;;;;5.93;3.28;;;22.90;99.90;;;23.42;41.44;102183.91;5081985;28;20040;-67
2023/06/04 09:02:51;;;;;;;4.18;3.03;;;23.10;99.90;;;23.11;40.48;102183.22;5083432;28;20044;-68
2023/06/04 09:05:23;;;;;;;4.80;3.42;;;23.00;99.90;;;23.05;39.14;102186.97;5080620;28;20058;-67
2023/06/04 09:07:56;;;;;;;6.50;2.97;;;22.80;99.90;;;22.73;40.83;102189.03;5077286;28;20067;-68
2023/06/04 09:10:26;;;;;;;4.22;3.40;;;22.40;99.90;;;22.66;41.75;102187.47;5082829;28;20043;-67
2023/06/04 09:12:57;;;;;;;;;;;22.30;99.90;;;22.98;41.52;102189.94;5082994;28;20129;-68
2023/06/04 09:15:26;;;;;;;4.65;3.17;;;22.50;99.90;;;23.21;41.41;102192.72;5081440;28;19924;-68
2023/06/04 09:17:54;;;;;;;4.53;3.20;;;22.80;99.90;;;23.32;40.19;102206.78;5084011;28;20052;-67
2023/06/04 09:20:24;;;;;;;3.97;3.53;;;23.00;99.90;;;23.27;39.34;102190.69;5080494;28;20048;-68
2023/06/04 09:22:53;;;;;;;6.07;2.83;;;23.00;99.90;;;22.45;40.25;102189.03;5080897;28;20115;-68
2023/06/04 09:25:23;;;;;;;6.43;3.47;;;22.40;99.90;;;22.54;40.82;102191.44;5083633;28;20397;-68
2023/06/04 09:27:55;;;;;;;6.38;3.30;;;22.20;99.90;;;22.80;40.61;102190.59;5063804;28;20063;-67
2023/06/04 09:30:24;;;;;;;5.72;3.15;;;22.30;99.90;;;22.93;40.68;102200.03;5082092;28;20048;-68
2023/06/04 09:32:54;;;;;;;4.80;3.58;;;22.50;99.90;;;22.79;41.94;102173.53;5082568;28;20037;-68
2023/06/04 09:35:23;;;;;;;6.78;3.88;;;22.60;99.90;;;23.29;42.03;102202.34;5080882;28;20457;-67
2023/06/04 09:37:56;;;;;;;4.32;3.20;;;22.90;99.90;;;23.40;41.64;102176.81;5083779;28;20078;-68
2023/06/04 09:40:36;;;;;;;6.13;3.40;;;23.10;99.90;;;23.70;40.85;102208.97;5093007;28;20052;-67
2023/06/04 09:43:06;;;;;;;3.83;3.53;;;23.30;99.90;;;23.95;40.85;102214.31;5081043;28;20040;-68
2023/06/04 09:45:36;;;;;;;5.15;3.35;;;23.60;99.90;;;24.10;41.31;102206.53;5083028;28;20399;-68
2023/06/04 09:48:05;;;;;;;5.65;3.25;;;23.70;99.90;;;24.15;40.34;102190.13;5083711;28;20048;-68
2023/06/04 09:50:38;;;;;;;4.57;3.47;;;23.90;99.90;;;24.17;40.38;102181.03;5081284;28;20102;-68
2023/06/04 09:53:15;;;;;;;5.38;3.28;;;24.00;99.90;;;24.35;39.51;102197.47;5086847;28;20044;-67
2023/06/04 09:55:44;;;;;;;5.15;3.10;;;24.10;99.90;;;24.23;39.47;102200.66;5102551;28;20109;-68
2023/06/04 09:58:15;;;;;;;6.35;3.58;;;23.90;99.90;;;24.28;39.28;102204.03;5084924;28;20037;-67
2023/06/04 10:00:46;;;;;;;4.10;3.15;;;23.90;99.90;;;24.47;39.38;102207.75;5087643;28;20051;-67
2023/06/04 10:03:19;;;;;;;12.82;8.40;;;24.10;99.90;;;24.60;39.33;102199.09;5080877;28;20139;-68
2023/06/04 10:05:48;;;;;;;8.60;3.85;;;24.30;99.90;;;24.80;39.09;102201.88;5086009;28;20052;-67
2023/06/04 10:08:20;;;;;;;4.35;2.85;;;24.50;99.90;;;24.81;38.35;102206.38;5085208;28;20121;-67
2023/06/04 10:10:50;;;;;;;7.15;3.05;;;24.50;99.90;;;24.87;39.17;102206.09;5083080;28;20080;-67
2023/06/04 10:13:21;;;;;;;4.90;2.97;;;24.60;99.90;;;24.71;38.44;102191.41;5086963;28;20040;-68
2023/06/04 10:15:50;;;;;;;4.15;3.13;;;24.40;99.90;;;24.80;39.31;102198.28;5079796;28;20041;-68
2023/06/04 10:18:20;;;;;;;5.93;3.05;;;24.50;99.90;;;24.75;38.54;102187.69;5102378;28;20048;-67
2023/06/04 10:20:49;;;;;;;5.03;3.30;;;24.60;99.90;;;25.02;38.74;102191.91;5084798;28;20123;-67
2023/06/04 10:23:20;;;;;;;5.20;3.33;;;24.70;99.90;;;25.02;39.08;102201.84;5085363;28;20149;-68